sensor_id;sensor_type;location;lat;lon;timestamp;pressure;altitude;pressure_sealevel;temperature;humidity
70902;BME280;58548;47.210;8.618;2023-05-01T00:01:58;94001.31;;;22.01;39.40
70902;BME280;58548;47.210;8.618;2023-05-01T00:04:27;93982.13;;;21.89;39.51
70902;BME280;58548;47.210;8.618;2023-05-01T00:06:53;93925.16;;;21.48;39.55
70902;BME280;58548;47.210;8.618;2023-05-01T00:09:21;93984.28;;;21.92;39.59
70902;BME280;58548;47.210;8.618;2023-05-01T00:11:47;93897.50;;;21.34;39.50
70902;BME280;58548;47.210;8.618;2023-05-01T00:14:15;93996.25;;;21.94;39.50
70902;BME280;58548;47.210;8.618;2023-05-01T00:16:41;93990.66;;;21.91;39.61
70902;BME280;58548;47.210;8.618;2023-05-01T00:19:07;93984.25;;;21.87;39.99
70902;BME280;58548;47.210;8.618;2023-05-01T00:21:41;93926.19;;;21.42;39.30
70902;BME280;58548;47.210;8.618;2023-05-01T00:24:09;93994.91;;;21.87;39.81
70902;BME280;58548;47.210;8.618;2023-05-01T00:26:35;93953.91;;;21.67;39.81
70902;BME280;58548;47.210;8.618;2023-05-01T00:29:04;93907.84;;;21.35;39.74
70902;BME280;58548;47.210;8.618;2023-05-01T00:31:32;93985.84;;;21.88;40.12
70902;BME280;58548;47.210;8.618;2023-05-01T00:34:00;93897.50;;;21.34;39.78
70902;BME280;58548;47.210;8.618;2023-05-01T00:36:29;93973.63;;;21.81;40.00
70902;BME280;58548;47.210;8.618;2023-05-01T00:38:56;93991.19;;;21.88;40.08
70902;BME280;58548;47.210;8.618;2023-05-01T00:41:22;93982.97;;;21.89;39.47
70902;BME280;58548;47.210;8.618;2023-05-01T00:43:48;93895.38;;;21.36;39.96
70902;BME280;58548;47.210;8.618;2023-05-01T00:46:14;93976.31;;;21.92;40.04
70902;BME280;58548;47.210;8.618;2023-05-01T00:48:40;93964.59;;;21.77;39.95
70902;BME280;58548;47.210;8.618;2023-05-01T00:51:08;93959.00;;;21.79;39.93
70902;BME280;58548;47.210;8.618;2023-05-01T00:53:35;93897.25;;;21.41;40.15
70902;BME280;58548;47.210;8.618;2023-05-01T00:56:02;93972.03;;;21.91;40.01
70902;BME280;58548;47.210;8.618;2023-05-01T00:58:31;93948.63;;;21.77;39.96
70902;BME280;58548;47.210;8.618;2023-05-01T01:00:59;93964.06;;;21.86;39.83
70902;BME280;58548;47.210;8.618;2023-05-01T01:03:30;93948.09;;;21.70;39.89
70902;BME280;58548;47.210;8.618;2023-05-01T01:09:22;93965.66;;;21.81;39.45
70902;BME280;58548;47.210;8.618;2023-05-01T01:14:49;93949.69;;;21.71;40.00
70902;BME280;58548;47.210;8.618;2023-05-01T01:17:21;93966.16;;;21.73;39.97
70902;BME280;58548;47.210;8.618;2023-05-01T01:22:45;93940.91;;;21.65;39.80
70902;BME280;58548;47.210;8.618;2023-05-01T01:31:04;93865.31;;;21.20;39.69
70902;BME280;58548;47.210;8.618;2023-05-01T01:36:36;93947.53;;;21.63;39.51
70902;BME280;58548;47.210;8.618;2023-05-01T01:39:29;93942.22;;;21.63;39.83
70902;BME280;58548;47.210;8.618;2023-05-01T01:41:57;93857.59;;;21.08;39.92
70902;BME280;58548;47.210;8.618;2023-05-01T01:45:02;93949.13;;;21.64;39.79
70902;BME280;58548;47.210;8.618;2023-05-01T01:47:34;93944.34;;;21.61;39.98
70902;BME280;58548;47.210;8.618;2023-05-01T01:50:04;93854.66;;;21.04;40.05
70902;BME280;58548;47.210;8.618;2023-05-01T01:52:35;93944.34;;;21.61;40.04
70902;BME280;58548;47.210;8.618;2023-05-01T01:55:10;93860.22;;;21.03;39.96
70902;BME280;58548;47.210;8.618;2023-05-01T01:57:39;93878.84;;;21.23;40.25
70902;BME280;58548;47.210;8.618;2023-05-01T02:00:09;93935.31;;;21.62;40.07
70902;BME280;58548;47.210;8.618;2023-05-01T02:02:40;93945.41;;;21.65;40.07
70902;BME280;58548;47.210;8.618;2023-05-01T02:05:14;93943.81;;;21.64;39.42
70902;BME280;58548;47.210;8.618;2023-05-01T02:07:47;93857.06;;;21.11;39.60
70902;BME280;58548;47.210;8.618;2023-05-01T02:10:19;93846.41;;;21.01;39.78
70902;BME280;58548;47.210;8.618;2023-05-01T02:12:50;93851.72;;;21.01;40.00
70902;BME280;58548;47.210;8.618;2023-05-01T02:15:18;93921.41;;;21.44;39.94
70902;BME280;58548;47.210;8.618;2023-05-01T02:17:45;93852.50;;;20.96;39.60
70902;BME280;58548;47.210;8.618;2023-05-01T02:20:12;93938.97;;;21.50;39.60
70902;BME280;58548;47.210;8.618;2023-05-01T02:22:42;93944.81;;;21.47;39.81
70902;BME280;58548;47.210;8.618;2023-05-01T02:25:12;93851.16;;;20.88;39.81
70902;BME280;58548;47.210;8.618;2023-05-01T02:27:51;93912.59;;;21.23;39.39
70902;BME280;58548;47.210;8.618;2023-05-01T02:30:25;93910.72;;;21.18;39.85
70902;BME280;58548;47.210;8.618;2023-05-01T02:32:50;93840.75;;;20.76;39.58
70902;BME280;58548;47.210;8.618;2023-05-01T02:35:19;93929.91;;;21.36;39.73
70902;BME280;58548;47.210;8.618;2023-05-01T02:37:50;93909.41;;;21.21;39.49
70902;BME280;58548;47.210;8.618;2023-05-01T02:40:17;93930.97;;;21.35;39.62
70902;BME280;58548;47.210;8.618;2023-05-01T02:42:44;93888.13;;;21.05;39.83
70902;BME280;58548;47.210;8.618;2023-05-01T02:45:23;93836.97;;;20.72;39.65
70902;BME280;58548;47.210;8.618;2023-05-01T02:47:53;93928.25;;;21.24;39.68
70902;BME280;58548;47.210;8.618;2023-05-01T02:50:28;93843.56;;;20.64;39.72
70902;BME280;58548;47.210;8.618;2023-05-01T02:52:59;93835.88;;;20.63;39.93
70902;BME280;58548;47.210;8.618;2023-05-01T02:55:26;93832.44;;;20.62;39.94
70902;BME280;58548;47.210;8.618;2023-05-01T02:57:58;93843.06;;;20.68;39.65
70902;BME280;58548;47.210;8.618;2023-05-01T03:00:29;93915.22;;;21.18;39.83
70902;BME280;58548;47.210;8.618;2023-05-01T03:02:55;93898.47;;;21.07;39.98
70902;BME280;58548;47.210;8.618;2023-05-01T03:05:21;93811.94;;;20.47;39.90
70902;BME280;58548;47.210;8.618;2023-05-01T03:07:47;93871.06;;;20.86;39.74
70902;BME280;58548;47.210;8.618;2023-05-01T03:10:18;93926.13;;;21.21;39.85
70902;BME280;58548;47.210;8.618;2023-05-01T03:12:44;93826.56;;;20.60;39.63
70902;BME280;58548;47.210;8.618;2023-05-01T03:15:16;93916.28;;;21.17;39.86
70902;BME280;58548;47.210;8.618;2023-05-01T03:17:43;93880.84;;;20.85;39.63
70902;BME280;58548;47.210;8.618;2023-05-01T03:20:09;93915.22;;;21.18;39.90
70902;BME280;58548;47.210;8.618;2023-05-01T03:22:37;93922.13;;;21.19;39.65
70902;BME280;58548;47.210;8.618;2023-05-01T03:25:04;93910.94;;;21.12;39.28
70902;BME280;58548;47.210;8.618;2023-05-01T03:27:32;93917.06;;;21.12;39.61
70902;BME280;58548;47.210;8.618;2023-05-01T03:29:58;93824.44;;;20.52;39.77
70902;BME280;58548;47.210;8.618;2023-05-01T03:32:24;93833.16;;;20.47;39.94
70902;BME280;58548;47.210;8.618;2023-05-01T03:34:53;93828.63;;;20.43;40.12
70902;BME280;58548;47.210;8.618;2023-05-01T03:37:22;93913.81;;;21.00;39.74
70902;BME280;58548;47.210;8.618;2023-05-01T03:39:50;93919.94;;;21.00;40.07
70902;BME280;58548;47.210;8.618;2023-05-01T03:42:18;93903.69;;;20.86;39.88
70902;BME280;58548;47.210;8.618;2023-05-01T03:44:46;93833.38;;;20.41;39.87
70902;BME280;58548;47.210;8.618;2023-05-01T03:47:12;93919.63;;;20.91;39.44
70902;BME280;58548;47.210;8.618;2023-05-01T03:49:43;93927.09;;;20.94;39.74
70902;BME280;58548;47.210;8.618;2023-05-01T03:52:10;93921.50;;;20.96;39.59
70902;BME280;58548;47.210;8.618;2023-05-01T03:54:39;93922.03;;;20.93;39.28
70902;BME280;58548;47.210;8.618;2023-05-01T03:57:05;93919.34;;;20.88;39.43
70902;BME280;58548;47.210;8.618;2023-05-01T03:59:33;93918.56;;;20.87;39.79
70902;BME280;58548;47.210;8.618;2023-05-01T04:01:59;93821.59;;;20.21;39.97
70902;BME280;58548;47.210;8.618;2023-05-01T04:04:25;93901.72;;;20.71;40.04
70902;BME280;58548;47.210;8.618;2023-05-01T04:06:54;93830.38;;;20.22;39.44
70902;BME280;58548;47.210;8.618;2023-05-01T04:09:19;93833.84;;;20.27;39.76
70902;BME280;58548;47.210;8.618;2023-05-01T04:11:50;93834.63;;;20.28;39.47
70902;BME280;58548;47.210;8.618;2023-05-01T04:14:18;93841.25;;;20.25;39.39
70902;BME280;58548;47.210;8.618;2023-05-01T04:16:44;93828.97;;;20.14;39.86
70902;BME280;58548;47.210;8.618;2023-05-01T04:19:10;93812.72;;;20.00;39.63
70902;BME280;58548;47.210;8.618;2023-05-01T04:21:38;93922.66;;;20.68;39.79
70902;BME280;58548;47.210;8.618;2023-05-01T04:24:06;93908.28;;;20.58;39.54
70902;BME280;58548;47.210;8.618;2023-05-01T04:26:32;93856.06;;;20.21;40.04
70902;BME280;58548;47.210;8.618;2023-05-01T04:28:58;93807.63;;;19.93;39.77
70902;BME280;58548;47.210;8.618;2023-05-01T04:31:26;93823.34;;;20.00;39.42
70902;BME280;58548;47.210;8.618;2023-05-01T04:33:55;93803.91;;;19.89;39.52
70902;BME280;58548;47.210;8.618;2023-05-01T04:36:21;93917.28;;;20.52;39.59
70902;BME280;58548;47.210;8.618;2023-05-01T04:38:52;93935.09;;;20.62;39.88
70902;BME280;58548;47.210;8.618;2023-05-01T04:41:18;93941.47;;;20.61;39.64
70902;BME280;58548;47.210;8.618;2023-05-01T04:43:46;93904.44;;;20.39;39.55
70902;BME280;58548;47.210;8.618;2023-05-01T04:46:12;93869.00;;;20.12;39.39
70902;BME280;58548;47.210;8.618;2023-05-01T04:48:38;93853.81;;;20.02;39.51
70902;BME280;58548;47.210;8.618;2023-05-01T04:51:09;93943.25;;;20.55;39.58
70902;BME280;58548;47.210;8.618;2023-05-01T04:53:37;93867.06;;;20.02;39.79
70902;BME280;58548;47.210;8.618;2023-05-01T04:56:03;93861.22;;;20.00;39.62
70902;BME280;58548;47.210;8.618;2023-05-01T04:58:31;93836.16;;;19.81;39.77
70902;BME280;58548;47.210;8.618;2023-05-01T05:01:00;93948.06;;;20.53;39.98
70902;BME280;58548;47.210;8.618;2023-05-01T05:03:26;93931.53;;;20.46;39.79
70902;BME280;58548;47.210;8.618;2023-05-01T05:05:52;93951.78;;;20.57;40.03
70902;BME280;58548;47.210;8.618;2023-05-01T05:08:18;93907.25;;;20.22;39.72
70902;BME280;58548;47.210;8.618;2023-05-01T05:10:46;93869.69;;;19.97;39.87
70902;BME280;58548;47.210;8.618;2023-05-01T05:13:12;93955.47;;;20.51;39.73
70902;BME280;58548;47.210;8.618;2023-05-01T05:15:40;93884.53;;;19.98;40.09
70902;BME280;58548;47.210;8.618;2023-05-01T05:18:05;93931.69;;;20.29;39.74
70902;BME280;58548;47.210;8.618;2023-05-01T05:20:37;93788.72;;;19.47;39.81
70902;BME280;58548;47.210;8.618;2023-05-01T05:23:05;93854.81;;;19.91;40.26
70902;BME280;58548;47.210;8.618;2023-05-01T05:25:31;93962.94;;;20.59;40.06
70902;BME280;58548;47.210;8.618;2023-05-01T05:27:57;93960.81;;;20.61;40.21
70902;BME280;58548;47.210;8.618;2023-05-01T05:30:25;93924.13;;;20.48;39.60
70902;BME280;58548;47.210;8.618;2023-05-01T05:32:56;93866.56;;;20.06;39.66
70902;BME280;58548;47.210;8.618;2023-05-01T05:35:22;93952.91;;;20.67;39.41
70902;BME280;58548;47.210;8.618;2023-05-01T05:37:50;93892.94;;;20.23;39.83
70902;BME280;58548;47.210;8.618;2023-05-01T05:40:16;93863.91;;;20.06;39.37
70902;BME280;58548;47.210;8.618;2023-05-01T05:42:46;93953.44;;;20.69;39.67
70902;BME280;58548;47.210;8.618;2023-05-01T05:45:12;93862.31;;;20.04;39.81
70902;BME280;58548;47.210;8.618;2023-05-01T05:47:40;93953.88;;;20.55;39.68
70902;BME280;58548;47.210;8.618;2023-05-01T05:50:06;93968.31;;;20.70;39.67
70902;BME280;58548;47.210;8.618;2023-05-01T05:52:33;93865.16;;;19.93;39.71
70902;BME280;58548;47.210;8.618;2023-05-01T05:54:59;93877.69;;;20.02;39.50
70902;BME280;58548;47.210;8.618;2023-05-01T05:57:27;93893.66;;;20.13;39.48
70902;BME280;58548;47.210;8.618;2023-05-01T06:00:00;93880.03;;;19.99;39.86
70902;BME280;58548;47.210;8.618;2023-05-01T06:02:26;93967.72;;;20.62;39.46
70902;BME280;58548;47.210;8.618;2023-05-01T06:04:51;93971.22;;;20.68;38.82
70902;BME280;58548;47.210;8.618;2023-05-01T06:07:20;93969.59;;;20.67;39.28
70902;BME280;58548;47.210;8.618;2023-05-01T06:09:46;93880.94;;;20.10;39.28
70902;BME280;58548;47.210;8.618;2023-05-01T06:12:12;93964.31;;;20.67;38.79
70902;BME280;58548;47.210;8.618;2023-05-01T06:14:38;93960.03;;;20.61;39.20
70902;BME280;58548;47.210;8.618;2023-05-01T06:17:08;93963.00;;;20.70;38.80
70902;BME280;58548;47.210;8.618;2023-05-01T06:19:36;93867.91;;;20.08;38.61
70902;BME280;58548;47.210;8.618;2023-05-01T06:22:08;93875.09;;;20.13;37.92
70902;BME280;58548;47.210;8.618;2023-05-01T06:24:36;93878.88;;;20.22;37.99
70902;BME280;58548;47.210;8.618;2023-05-01T06:27:04;93968.31;;;20.70;38.35
70902;BME280;58548;47.210;8.618;2023-05-01T06:29:33;93869.81;;;20.18;37.89
70902;BME280;58548;47.210;8.618;2023-05-01T06:31:58;93969.72;;;20.77;38.44
70902;BME280;58548;47.210;8.618;2023-05-01T06:34:25;93849.78;;;19.95;37.66
70902;BME280;58548;47.210;8.618;2023-05-01T06:36:50;93893.69;;;20.18;37.82
70902;BME280;58548;47.210;8.618;2023-05-01T06:39:16;93946.72;;;20.56;38.02
70902;BME280;58548;47.210;8.618;2023-05-01T06:41:47;93879.06;;;20.10;37.90
70902;BME280;58548;47.210;8.618;2023-05-01T06:44:18;93879.06;;;20.10;38.34
70902;BME280;58548;47.210;8.618;2023-05-01T06:46:46;93974.22;;;20.77;37.41
70902;BME280;58548;47.210;8.618;2023-05-01T06:49:12;93977.41;;;20.79;38.10
70902;BME280;58548;47.210;8.618;2023-05-01T06:51:38;93812.00;;;19.77;37.27
70902;BME280;58548;47.210;8.618;2023-05-01T06:54:06;93875.19;;;20.23;37.91
70902;BME280;58548;47.210;8.618;2023-05-01T06:56:35;93885.56;;;20.30;37.29
70902;BME280;58548;47.210;8.618;2023-05-01T06:59:01;93954.22;;;20.69;37.82
70902;BME280;58548;47.210;8.618;2023-05-01T07:01:28;93978.03;;;20.91;37.86
70902;BME280;58548;47.210;8.618;2023-05-01T07:03:56;93849.91;;;20.10;38.02
70902;BME280;58548;47.210;8.618;2023-05-01T07:06:25;93988.72;;;21.07;38.00
70902;BME280;58548;47.210;8.618;2023-05-01T07:08:55;93985.84;;;21.14;37.85
70902;BME280;58548;47.210;8.618;2023-05-01T07:11:21;93975.19;;;21.08;37.65
70902;BME280;58548;47.210;8.618;2023-05-01T07:13:47;93908.84;;;20.66;37.66
70902;BME280;58548;47.210;8.618;2023-05-01T07:16:18;93989.34;;;21.24;37.47
70902;BME280;58548;47.210;8.618;2023-05-01T07:18:46;93996.28;;;21.31;37.82
70902;BME280;58548;47.210;8.618;2023-05-01T07:21:12;93896.75;;;20.80;37.52
70902;BME280;58548;47.210;8.618;2023-05-01T07:23:38;93925.00;;;21.07;37.28
70902;BME280;58548;47.210;8.618;2023-05-01T07:26:04;93819.56;;;20.39;37.25
70902;BME280;58548;47.210;8.618;2023-05-01T07:28:35;93954.03;;;21.29;37.17
70902;BME280;58548;47.210;8.618;2023-05-01T07:31:01;93897.88;;;21.00;37.08
70902;BME280;58548;47.210;8.618;2023-05-01T07:33:27;93895.25;;;21.05;37.38
70902;BME280;58548;47.210;8.618;2023-05-01T07:35:53;93902.44;;;21.09;36.96
70902;BME280;58548;47.210;8.618;2023-05-01T07:38:21;93987.41;;;21.68;37.15
70902;BME280;58548;47.210;8.618;2023-05-01T07:40:53;93930.44;;;21.33;36.96
70902;BME280;58548;47.210;8.618;2023-05-01T07:43:19;93894.22;;;21.11;37.18
70902;BME280;58548;47.210;8.618;2023-05-01T07:45:58;93972.56;;;21.77;37.27
70902;BME280;58548;47.210;8.618;2023-05-01T07:48:26;93991.22;;;21.98;37.34
70902;BME280;58548;47.210;8.618;2023-05-01T07:50:53;93883.16;;;21.40;37.36
70902;BME280;58548;47.210;8.618;2023-05-01T07:53:19;93907.16;;;21.66;36.85
70902;BME280;58548;47.210;8.618;2023-05-01T07:55:48;93990.44;;;22.28;36.12
70902;BME280;58548;47.210;8.618;2023-05-01T07:58:16;93993.13;;;22.44;36.06
70902;BME280;58548;47.210;8.618;2023-05-01T08:00:42;94000.31;;;22.59;36.04
70902;BME280;58548;47.210;8.618;2023-05-01T08:03:10;93985.16;;;22.54;35.72
70902;BME280;58548;47.210;8.618;2023-05-01T08:05:40;93919.97;;;22.21;35.69
70902;BME280;58548;47.210;8.618;2023-05-01T08:08:06;94000.06;;;22.76;35.81
70902;BME280;58548;47.210;8.618;2023-05-01T08:10:32;94002.97;;;22.85;35.31
70902;BME280;58548;47.210;8.618;2023-05-01T08:13:00;94005.34;;;22.86;34.55
70902;BME280;58548;47.210;8.618;2023-05-01T08:15:28;93930.59;;;22.36;35.05
70902;BME280;58548;47.210;8.618;2023-05-01T08:17:55;93971.06;;;22.64;34.73
70902;BME280;58548;47.210;8.618;2023-05-01T08:20:24;94011.47;;;22.92;34.95
70902;BME280;58548;47.210;8.618;2023-05-01T08:22:49;93939.66;;;22.51;34.99
70902;BME280;58548;47.210;8.618;2023-05-01T08:25:18;93899.19;;;22.28;34.59
70902;BME280;58548;47.210;8.618;2023-05-01T08:27:48;93934.84;;;22.58;34.73
70902;BME280;58548;47.210;8.618;2023-05-01T08:30:16;94020.47;;;23.12;34.76
70902;BME280;58548;47.210;8.618;2023-05-01T08:32:44;93956.41;;;22.72;34.76
70902;BME280;58548;47.210;8.618;2023-05-01T08:35:12;93999.19;;;23.07;34.72
70902;BME280;58548;47.210;8.618;2023-05-01T08:37:40;94026.88;;;23.21;34.81
70902;BME280;58548;47.210;8.618;2023-05-01T08:40:07;93988.81;;;23.00;34.53
70902;BME280;58548;47.210;8.618;2023-05-01T08:42:36;94001.84;;;23.22;33.94
70902;BME280;58548;47.210;8.618;2023-05-01T08:45:09;94004.22;;;23.24;34.03
70902;BME280;58548;47.210;8.618;2023-05-01T08:47:38;93940.41;;;22.82;34.58
70902;BME280;58548;47.210;8.618;2023-05-01T08:50:09;94018.59;;;23.33;34.62
70902;BME280;58548;47.210;8.618;2023-05-01T08:52:41;94012.22;;;23.29;34.59
70902;BME280;58548;47.210;8.618;2023-05-01T08:55:14;93975.47;;;23.15;34.46
70902;BME280;58548;47.210;8.618;2023-05-01T08:57:45;93956.06;;;22.99;34.45
70902;BME280;58548;47.210;8.618;2023-05-01T09:00:22;93932.16;;;22.84;34.85
70902;BME280;58548;47.210;8.618;2023-05-01T09:02:50;94023.63;;;23.45;34.72
70902;BME280;58548;47.210;8.618;2023-05-01T09:05:18;94026.28;;;23.50;34.40
70902;BME280;58548;47.210;8.618;2023-05-01T09:07:46;94025.22;;;23.46;34.32
70902;BME280;58548;47.210;8.618;2023-05-01T09:10:14;94010.59;;;23.33;34.15
70902;BME280;58548;47.210;8.618;2023-05-01T09:12:41;94033.22;;;23.46;34.09
70902;BME280;58548;47.210;8.618;2023-05-01T09:15:11;93935.06;;;22.93;34.37
70902;BME280;58548;47.210;8.618;2023-05-01T09:17:41;93930.81;;;22.86;34.13
70902;BME280;58548;47.210;8.618;2023-05-01T09:20:07;94013.28;;;23.33;34.04
70902;BME280;58548;47.210;8.618;2023-05-01T09:22:36;94020.97;;;23.45;33.71
70902;BME280;58548;47.210;8.618;2023-05-01T09:25:02;94041.16;;;23.56;34.22
70902;BME280;58548;47.210;8.618;2023-05-01T09:27:33;94018.84;;;23.42;34.39
70902;BME280;58548;47.210;8.618;2023-05-01T09:30:03;94034.22;;;23.60;34.07
70902;BME280;58548;47.210;8.618;2023-05-01T09:32:31;94011.88;;;23.51;34.04
70902;BME280;58548;47.210;8.618;2023-05-01T09:37:34;93950.16;;;23.23;32.97
70902;BME280;58548;47.210;8.618;2023-05-01T09:42:31;94027.16;;;23.90;33.26
70902;BME280;58548;47.210;8.618;2023-05-01T09:45:01;94045.44;;;24.18;33.10
70902;BME280;58548;47.210;8.618;2023-05-01T09:47:28;94018.00;;;24.12;33.03
70902;BME280;58548;47.210;8.618;2023-05-01T09:49:55;93952.84;;;23.78;32.27
70902;BME280;58548;47.210;8.618;2023-05-01T09:52:28;93949.88;;;23.80;32.31
70902;BME280;58548;47.210;8.618;2023-05-01T09:55:16;94048.78;;;24.39;31.74
70902;BME280;58548;47.210;8.618;2023-05-01T09:57:44;93983.97;;;23.93;31.31
70902;BME280;58548;47.210;8.618;2023-05-01T10:00:12;94031.78;;;24.30;31.27
70902;BME280;58548;47.210;8.618;2023-05-01T10:02:40;94022.75;;;24.20;31.82
70902;BME280;58548;47.210;8.618;2023-05-01T10:05:08;94012.91;;;24.16;31.62
70902;BME280;58548;47.210;8.618;2023-05-01T10:07:34;94046.41;;;24.37;31.64
70902;BME280;58548;47.210;8.618;2023-05-01T10:10:16;94008.13;;;24.13;30.80
70902;BME280;58548;47.210;8.618;2023-05-01T10:12:46;93960.03;;;23.73;31.58
70902;BME280;58548;47.210;8.618;2023-05-01T10:15:13;94037.09;;;24.30;32.05
70902;BME280;58548;47.210;8.618;2023-05-01T10:17:42;93961.66;;;23.74;31.46
70902;BME280;58548;47.210;8.618;2023-05-01T10:20:13;94035.00;;;24.21;31.34
70902;BME280;58548;47.210;8.618;2023-05-01T10:22:43;93968.56;;;23.80;31.62
70902;BME280;58548;47.210;8.618;2023-05-01T10:25:10;93945.69;;;23.69;32.03
70902;BME280;58548;47.210;8.618;2023-05-01T10:27:40;93954.69;;;23.78;31.35
70902;BME280;58548;47.210;8.618;2023-05-01T10:30:08;94044.56;;;24.33;31.94
70902;BME280;58548;47.210;8.618;2023-05-01T10:32:36;93946.16;;;23.76;32.33
70902;BME280;58548;47.210;8.618;2023-05-01T10:35:14;94019.47;;;24.34;31.90
70902;BME280;58548;47.210;8.618;2023-05-01T10:37:50;94032.72;;;24.44;31.94
70902;BME280;58548;47.210;8.618;2023-05-01T10:43:15;94042.28;;;24.56;31.72
70902;BME280;58548;47.210;8.618;2023-05-01T10:45:47;94021.47;;;24.52;32.48
70902;BME280;58548;47.210;8.618;2023-05-01T10:51:19;94029.25;;;24.83;30.84
70902;BME280;58548;47.210;8.618;2023-05-01T10:56:40;94023.66;;;25.09;30.85
70902;BME280;58548;47.210;8.618;2023-05-01T10:59:07;93992.03;;;24.92;30.92
70902;BME280;58548;47.210;8.618;2023-05-01T11:01:36;94015.75;;;25.28;29.60
70902;BME280;58548;47.210;8.618;2023-05-01T11:04:43;94029.19;;;25.48;29.17
70902;BME280;58548;47.210;8.618;2023-05-01T11:09:54;94022.56;;;25.64;28.48
70902;BME280;58548;47.210;8.618;2023-05-01T11:15:32;94024.50;;;25.83;29.47
70902;BME280;58548;47.210;8.618;2023-05-01T11:18:01;94020.59;;;25.94;29.29
70902;BME280;58548;47.210;8.618;2023-05-01T11:23:00;93929.72;;;25.70;29.12
70902;BME280;58548;47.210;8.618;2023-05-01T11:25:30;94018.38;;;26.40;28.39
70902;BME280;58548;47.210;8.618;2023-05-01T11:27:59;93934.41;;;25.97;28.38
70902;BME280;58548;47.210;8.618;2023-05-01T11:30:37;94012.22;;;26.58;27.71
70902;BME280;58548;47.210;8.618;2023-05-01T11:33:06;93946.50;;;26.14;28.06
70902;BME280;58548;47.210;8.618;2023-05-01T11:35:37;93955.66;;;26.27;27.82
70902;BME280;58548;47.210;8.618;2023-05-01T11:38:03;93995.63;;;26.56;27.60
70902;BME280;58548;47.210;8.618;2023-05-01T11:40:32;94013.22;;;26.62;27.66
70902;BME280;58548;47.210;8.618;2023-05-01T11:43:08;93925.31;;;25.98;27.45
70902;BME280;58548;47.210;8.618;2023-05-01T11:45:36;93938.50;;;26.09;27.96
70902;BME280;58548;47.210;8.618;2023-05-01T11:48:02;94018.28;;;26.64;28.22
70902;BME280;58548;47.210;8.618;2023-05-01T11:50:37;93951.56;;;26.15;27.26
70902;BME280;58548;47.210;8.618;2023-05-01T11:53:09;94012.28;;;26.53;28.17
70902;BME280;58548;47.210;8.618;2023-05-01T11:55:42;93956.47;;;26.08;27.90
70902;BME280;58548;47.210;8.618;2023-05-01T11:58:12;94023.16;;;26.43;26.32
70902;BME280;58548;47.210;8.618;2023-05-01T12:00:40;94028.31;;;26.20;27.46
70902;BME280;58548;47.210;8.618;2023-05-01T12:03:10;94024.09;;;26.14;27.57
70902;BME280;58548;47.210;8.618;2023-05-01T12:05:42;94039.03;;;25.96;26.47
70902;BME280;58548;47.210;8.618;2023-05-01T12:08:14;93950.06;;;25.22;27.87
70902;BME280;58548;47.210;8.618;2023-05-01T12:10:45;94022.47;;;25.50;27.97
70902;BME280;58548;47.210;8.618;2023-05-01T12:13:12;94028.50;;;25.32;28.24
70902;BME280;58548;47.210;8.618;2023-05-01T12:15:45;93939.69;;;24.62;28.24
70902;BME280;58548;47.210;8.618;2023-05-01T12:18:13;93995.59;;;24.82;28.78
70902;BME280;58548;47.210;8.618;2023-05-01T12:20:40;94042.03;;;24.87;29.25
70902;BME280;58548;47.210;8.618;2023-05-01T12:23:09;94037.06;;;24.75;29.62
70902;BME280;58548;47.210;8.618;2023-05-01T12:25:37;93944.91;;;24.13;29.15
70902;BME280;58548;47.210;8.618;2023-05-01T12:28:11;93954.34;;;23.95;30.05
70902;BME280;58548;47.210;8.618;2023-05-01T12:30:40;94044.50;;;24.38;30.28
70902;BME280;58548;47.210;8.618;2023-05-01T12:33:13;94041.63;;;24.29;30.26
70902;BME280;58548;47.210;8.618;2023-05-01T12:35:40;94010.06;;;23.97;31.48
70902;BME280;58548;47.210;8.618;2023-05-01T12:43:17;94014.94;;;23.79;31.99
70902;BME280;58548;47.210;8.618;2023-05-01T12:45:44;93992.09;;;23.62;32.33
70902;BME280;58548;47.210;8.618;2023-05-01T12:48:13;94041.03;;;23.92;32.34
70902;BME280;58548;47.210;8.618;2023-05-01T12:50:42;94039.94;;;23.99;32.93
70902;BME280;58548;47.210;8.618;2023-05-01T12:53:08;94037.28;;;23.99;33.13
70902;BME280;58548;47.210;8.618;2023-05-01T12:55:48;94035.13;;;24.06;32.83
70902;BME280;58548;47.210;8.618;2023-05-01T12:58:17;94043.34;;;24.15;32.80
70902;BME280;58548;47.210;8.618;2023-05-01T13:00:50;93931.59;;;23.63;32.77
70902;BME280;58548;47.210;8.618;2023-05-01T13:03:27;94042.28;;;24.56;31.96
70902;BME280;58548;47.210;8.618;2023-05-01T13:05:58;94030.72;;;24.65;32.04
70902;BME280;58548;47.210;8.618;2023-05-01T13:08:35;94050.75;;;24.63;31.56
70902;BME280;58548;47.210;8.618;2023-05-01T13:13:38;94050.44;;;24.35;31.61
70902;BME280;58548;47.210;8.618;2023-05-01T13:16:15;94050.78;;;24.18;31.15
70902;BME280;58548;47.210;8.618;2023-05-01T13:18:49;94027.81;;;23.67;31.18
70902;BME280;58548;47.210;8.618;2023-05-01T13:21:25;94044.34;;;23.63;31.96
70902;BME280;58548;47.210;8.618;2023-05-01T13:23:55;94057.16;;;23.61;31.52
70902;BME280;58548;47.210;8.618;2023-05-01T13:28:52;94056.91;;;23.47;32.03
70902;BME280;58548;47.210;8.618;2023-05-01T13:31:20;93986.16;;;23.00;31.91
70902;BME280;58548;47.210;8.618;2023-05-01T13:33:52;93954.03;;;22.60;32.20
70902;BME280;58548;47.210;8.618;2023-05-01T13:36:19;93982.47;;;22.75;32.34
70902;BME280;58548;47.210;8.618;2023-05-01T13:38:50;93968.13;;;22.66;32.47
70902;BME280;58548;47.210;8.618;2023-05-01T13:41:21;93968.94;;;22.66;32.69
70902;BME280;58548;47.210;8.618;2023-05-01T13:43:49;94061.50;;;23.16;32.83
70902;BME280;58548;47.210;8.618;2023-05-01T13:46:19;94037.28;;;23.07;33.54
70902;BME280;58548;47.210;8.618;2023-05-01T13:48:49;94053.53;;;23.21;33.47
70902;BME280;58548;47.210;8.618;2023-05-01T13:51:25;94047.38;;;23.26;33.20
70902;BME280;58548;47.210;8.618;2023-05-01T13:53:54;94050.03;;;23.36;33.48
70902;BME280;58548;47.210;8.618;2023-05-01T13:56:23;94032.69;;;23.39;32.45
70902;BME280;58548;47.210;8.618;2023-05-01T13:58:49;93953.94;;;22.91;33.08
70902;BME280;58548;47.210;8.618;2023-05-01T14:01:17;94033.75;;;23.43;33.45